Time;durP1;ratioP1;P1;durP2;ratioP2;P2;SDS_P1;SDS_P2;PMS_P1;PMS_P2;Temp;Humidity;BMP_temperature;BMP_pressure;BME280_temperature;BME280_humidity;BME280_pressure;Samples;Min_cycle;Max_cycle;Signal;HPM_P1;HPM_P2
2021/09/03 00:00:17;;;;;;;6.32;3.30;;;;;;;;;;10280706;28;20040;-56
2021/09/03 00:05:18;;;;;;;5.18;3.42;;;;;;;;;;10280644;28;20083;-57
2021/09/03 00:10:19;;;;;;;4.78;3.45;;;;;;;;;;10279463;28;20041;-57
2021/09/03 00:15:17;;;;;;;3.20;2.72;;;;;;;;;;10280293;28;20048;-58
2021/09/03 00:20:17;;;;;;;5.60;2.97;;;;;;;;;;10280071;28;20040;-58
2021/09/03 00:25:15;;;;;;;4.68;3.35;;;;;;;;;;10279770;28;20068;-59
2021/09/03 00:30:14;;;;;;;6.03;3.38;;;;;;;;;;10279713;28;20048;-58
2021/09/03 00:35:12;;;;;;;4.40;3.50;;;;;;;;;;10279498;28;20429;-58
2021/09/03 00:40:12;;;;;;;4.55;3.05;;;;;;;;;;10279402;28;20071;-59
2021/09/03 00:45:11;;;;;;;5.13;3.10;;;;;;;;;;10278969;28;20087;-59
2021/09/03 00:50:10;;;;;;;4.32;3.15;;;;;;;;;;10279150;28;20048;-57
2021/09/03 00:55:08;;;;;;;6.80;4.70;;;;;;;;;;10278876;28;20406;-59
2021/09/03 01:00:10;;;;;;;6.00;3.20;;;;;;;;;;10278351;28;20052;-58
2021/09/03 01:05:09;;;;;;;8.40;3.50;;;;;;;;;;10278421;28;20093;-58
2021/09/03 01:10:07;;;;;;;4.03;3.20;;;;;;;;;;10278283;28;20041;-58
2021/09/03 01:15:06;;;;;;;7.80;3.78;;;;;;;;;;10277847;28;20040;-58
2021/09/03 01:20:07;;;;;;;3.92;3.42;;;;;;;;;;10277784;28;20048;-57
2021/09/03 01:25:08;;;;;;;5.75;3.05;;;;;;;;;;10277518;28;20087;-58
2021/09/03 01:30:08;;;;;;;3.97;3.40;;;;;;;;;;10277540;28;20431;-58
2021/09/03 01:35:07;;;;;;;6.38;3.20;;;;;;;;;;10277342;28;20041;-57
2021/09/03 01:40:08;;;;;;;5.57;3.38;;;;;;;;;;10275294;28;20052;-58
2021/09/03 01:45:07;;;;;;;5.88;3.55;;;;;;;;;;10276922;28;20524;-58
2021/09/03 01:50:05;;;;;;;7.15;3.40;;;;;;;;;;10276894;28;20045;-58
2021/09/03 01:55:04;;;;;;;6.22;3.83;;;;;;;;;;10276833;28;20033;-58
2021/09/03 02:00:06;;;;;;;3.95;3.50;;;;;;;;;;10276603;28;20045;-58
2021/09/03 02:05:11;;;;;;;5.57;3.30;;;;;;;;;;10276457;28;20077;-58
2021/09/03 02:10:10;;;;;;;6.72;3.28;;;;;;;;;;10278217;28;20045;-58
2021/09/03 02:15:10;;;;;;;6.88;3.30;;;;;;;;;;10289771;28;20088;-58
2021/09/03 02:20:09;;;;;;;5.80;3.58;;;;;;;;;;10289800;28;20045;-58
2021/09/03 02:25:07;;;;;;;5.97;3.20;;;;;;;;;;10288386;28;20083;-58
2021/09/03 02:30:06;;;;;;;4.80;3.22;;;;;;;;;;10289647;28;20077;-59
2021/09/03 02:35:06;;;;;;;4.97;2.88;;;;;;;;;;10289538;28;20041;-59
2021/09/03 02:40:06;;;;;;;5.05;3.05;;;;;;;;;;10287591;28;20529;-58
2021/09/03 02:45:05;;;;;;;5.68;3.67;;;;;;;;;;10289222;28;20076;-59
2021/09/03 02:50:06;;;;;;;3.53;3.00;;;;;;;;;;10289296;28;20048;-58
2021/09/03 02:55:04;;;;;;;5.45;3.17;;;;;;;;;;10289187;28;20045;-58
2021/09/03 03:00:04;;;;;;;6.20;3.70;;;;;;;;;;10288900;28;20049;-59
2021/09/03 03:05:02;;;;;;;7.78;3.60;;;;;;;;;;10289132;28;20095;-58
2021/09/03 03:10:02;;;;;;;7.00;3.20;;;;;;;;;;10289004;28;20049;-58
2021/09/03 03:15:02;;;;;;;5.25;2.90;;;;;;;;;;10288722;28;20073;-58
2021/09/03 03:20:01;;;;;;;5.65;3.47;;;;;;;;;;10288693;28;20044;-57
2021/09/03 03:24:59;;;;;;;4.65;2.97;;;;;;;;;;10281601;28;20065;-57
2021/09/03 03:30:00;;;;;;;15.95;3.80;;;;;;;;;;10280274;28;20528;-58
2021/09/03 03:34:58;;;;;;;6.25;3.22;;;;;;;;;;10281893;28;20521;-58
2021/09/03 03:39:56;;;;;;;5.47;2.90;;;;;;;;;;10281684;28;20053;-58
2021/09/03 03:44:55;;;;;;;6.70;3.58;;;;;;;;;;10281242;28;20072;-59
2021/09/03 03:49:54;;;;;;;5.32;3.33;;;;;;;;;;10281255;28;20075;-59
2021/09/03 03:54:53;;;;;;;6.97;3.35;;;;;;;;;;10280930;28;20061;-59
2021/09/03 03:59:51;;;;;;;6.47;2.97;;;;;;;;;;10280883;28;20063;-59
2021/09/03 04:04:49;;;;;;;11.27;3.80;;;;;;;;;;10280550;28;20080;-57
2021/09/03 04:09:49;;;;;;;8.40;3.35;;;;;;;;;;10280347;28;20414;-59
2021/09/03 04:14:47;;;;;;;7.65;4.05;;;;;;;;;;10280376;28;20089;-59
2021/09/03 04:19:46;;;;;;;4.50;3.03;;;;;;;;;;10280056;28;20502;-58
2021/09/03 04:24:44;;;;;;;5.50;2.92;;;;;;;;;;10279488;28;20049;-58
2021/09/03 04:29:44;;;;;;;5.85;2.65;;;;;;;;;;10279758;28;20037;-58
2021/09/03 04:34:42;;;;;;;5.32;3.03;;;;;;;;;;10279277;28;20042;-59
2021/09/03 04:39:40;;;;;;;6.50;3.20;;;;;;;;;;10279256;28;20148;-59
2021/09/03 04:44:38;;;;;;;8.07;3.92;;;;;;;;;;10279118;28;20080;-60
2021/09/03 04:49:38;;;;;;;7.72;5.30;;;;;;;;;;10278762;28;20048;-60
2021/09/03 04:54:37;;;;;;;9.60;5.82;;;;;;;;;;10273114;28;20076;-60
2021/09/03 04:59:35;;;;;;;5.93;4.70;;;;;;;;;;10270972;28;20087;-60
2021/09/03 05:04:33;;;;;;;6.97;3.55;;;;;;;;;;10270743;28;20541;-60
2021/09/03 05:09:33;;;;;;;9.75;3.60;;;;;;;;;;10272502;28;20068;-60
2021/09/03 05:14:31;;;;;;;4.82;3.63;;;;;;;;;;10278084;28;20079;-60
2021/09/03 05:19:29;;;;;;;6.80;4.88;;;;;;;;;;10277945;28;20041;-60
2021/09/03 05:24:28;;;;;;;8.20;3.33;;;;;;;;;;10277572;28;20072;-60
2021/09/03 05:29:27;;;;;;;9.27;7.25;;;;;;;;;;10277313;28;20076;-58
2021/09/03 05:34:26;;;;;;;5.55;2.50;;;;;;;;;;10277243;28;20490;-58
2021/09/03 05:39:24;;;;;;;7.53;3.38;;;;;;;;;;10276972;28;20482;-59
2021/09/03 05:44:22;;;;;;;11.65;6.72;;;;;;;;;;10276251;28;20084;-59
2021/09/03 05:49:22;;;;;;;7.93;5.53;;;;;;;;;;10276839;28;20041;-60
2021/09/03 05:54:20;;;;;;;5.15;3.47;;;;;;;;;;10277244;28;20049;-59
2021/09/03 05:59:19;;;;;;;4.70;3.10;;;;;;;;;;10276743;28;20053;-59
2021/09/03 06:04:17;;;;;;;6.18;4.05;;;;;;;;;;10276565;28;20481;-59
2021/09/03 06:09:16;;;;;;;9.13;5.85;;;;;;;;;;10276220;28;20052;-59
2021/09/03 06:14:15;;;;;;;5.20;3.28;;;;;;;;;;10275958;28;20065;-59
2021/09/03 06:19:13;;;;;;;5.82;2.97;;;;;;;;;;10275933;28;20056;-59
2021/09/03 06:29:38;;;;;;;11.70;9.05;;;;;;;;;;10275891;28;20049;-59
2021/09/03 06:34:37;;;;;;;3.10;2.47;;;;;;;;;;10275881;28;20426;-59
2021/09/03 06:39:36;;;;;;;4.82;2.90;;;;;;;;;;10275595;28;20044;-59
2021/09/03 06:44:36;;;;;;;3.65;3.20;;;;;;;;;;10275582;28;20469;-59
2021/09/03 06:49:35;;;;;;;38.38;32.05;;;;;;;;;;10275636;28;20045;-59
2021/09/03 06:54:34;;;;;;;60.25;51.97;;;;;;;;;;10275434;28;20041;-59
2021/09/03 06:59:32;;;;;;;9.18;3.30;;;;;;;;;;10281915;28;20045;-59
2021/09/03 07:04:32;;;;;;;6.90;3.05;;;;;;;;;;10282870;28;20615;-60
2021/09/03 07:09:30;;;;;;;4.60;2.63;;;;;;;;;;10282768;28;20473;-58
2021/09/03 07:14:28;;;;;;;4.38;2.63;;;;;;;;;;10282662;28;20056;-59
2021/09/03 07:19:27;;;;;;;4.18;2.65;;;;;;;;;;10282388;28;20076;-59
2021/09/03 07:24:26;;;;;;;4.15;2.60;;;;;;;;;;10281344;28;20041;-59
2021/09/03 07:29:25;;;;;;;4.50;2.55;;;;;;;;;;10282091;28;20057;-59
2021/09/03 07:34:23;;;;;;;4.95;3.13;;;;;;;;;;10281783;28;20406;-59
2021/09/03 07:39:21;;;;;;;7.25;2.63;;;;;;;;;;10281492;28;20091;-59
2021/09/03 07:44:21;;;;;;;3.33;2.22;;;;;;;;;;10281388;28;20048;-59
2021/09/03 07:49:20;;;;;;;2.80;2.33;;;;;;;;;;10281269;28;20037;-59
2021/09/03 07:54:18;;;;;;;5.32;3.35;;;;;;;;;;10281061;28;20470;-59
2021/09/03 07:59:16;;;;;;;6.28;2.65;;;;;;;;;;10280067;28;20049;-59
2021/09/03 08:04:17;;;;;;;4.32;2.63;;;;;;;;;;10280920;28;20049;-59
2021/09/03 08:09:16;;;;;;;4.90;2.95;;;;;;;;;;10279496;28;20077;-59
2021/09/03 08:14:14;;;;;;;5.30;2.70;;;;;;;;;;10280186;28;20076;-60
2021/09/03 08:19:12;;;;;;;4.20;3.10;;;;;;;;;;10280535;28;20493;-59
2021/09/03 08:24:12;;;;;;;3.58;2.30;;;;;;;;;;10280015;28;20056;-60
2021/09/03 08:29:10;;;;;;;2.92;2.63;;;;;;;;;;10277814;28;20513;-59
2021/09/03 08:34:09;;;;;;;5.30;4.25;;;;;;;;;;10279655;28;20072;-59
2021/09/03 08:39:07;;;;;;;5.35;4.00;;;;;;;;;;10279136;28;20044;-60
2021/09/03 08:44:07;;;;;;;7.28;3.10;;;;;;;;;;10279011;28;20037;-60
2021/09/03 08:49:06;;;;;;;11.38;4.07;;;;;;;;;;10277265;28;20080;-59
2021/09/03 08:54:05;;;;;;;3.63;2.75;;;;;;;;;;10278624;28;20041;-60
2021/09/03 08:59:04;;;;;;;6.10;3.17;;;;;;;;;;10278594;28;20045;-59
2021/09/03 09:04:11;;;;;;;5.55;3.00;;;;;;;;;;10278572;28;20076;-60
2021/09/03 09:09:09;;;;;;;3.17;2.28;;;;;;;;;;10278058;28;20520;-59
2021/09/03 09:14:09;;;;;;;4.57;3.35;;;;;;;;;;10277947;28;20052;-60
2021/09/03 09:19:08;;;;;;;3.83;2.58;;;;;;;;;;10277103;28;20075;-59
2021/09/03 09:24:09;;;;;;;6.85;3.47;;;;;;;;;;10277334;28;20041;-59
2021/09/03 09:29:13;;;;;;;5.38;2.88;;;;;;;;;;10275557;28;20080;-59
2021/09/03 09:34:18;;;;;;;7.78;2.92;;;;;;;;;;10277254;28;20064;-59
2021/09/03 09:39:18;;;;;;;3.78;2.42;;;;;;;;;;10276944;28;20051;-59
2021/09/03 09:44:27;;;;;;;4.13;3.42;;;;;;;;;;10276898;28;20064;-59
2021/09/03 09:49:25;;;;;;;4.60;2.50;;;;;;;;;;10276778;28;20036;-59
2021/09/03 09:54:26;;;;;;;6.05;4.05;;;;;;;;;;10275853;28;20041;-59
2021/09/03 09:59:25;;;;;;;3.40;2.92;;;;;;;;;;10276648;28;20052;-59
2021/09/03 10:04:25;;;;;;;3.67;2.78;;;;;;;;;;10276631;28;20056;-60
2021/09/03 10:09:25;;;;;;;4.60;2.92;;;;;;;;;;10274386;28;20418;-60
2021/09/03 10:14:24;;;;;;;3.38;2.63;;;;;;;;;;10276303;28;20041;-61
2021/09/03 10:19:24;;;;;;;4.20;2.70;;;;;;;;;;10276158;28;20073;-60
2021/09/03 10:24:26;;;;;;;3.97;2.78;;;;;;;;;;10276053;28;20053;-61
2021/09/03 10:29:26;;;;;;;6.32;3.05;;;;;;;;;;10275133;28;20072;-60
2021/09/03 10:34:47;;;;;;;9.15;4.05;;;;;;;;;;10282564;28;20041;-61
2021/09/03 10:39:47;;;;;;;3.30;2.67;;;;;;;;;;10284101;28;20415;-60
2021/09/03 10:45:00;;;;;;;3.45;2.90;;;;;;;;;;10283924;28;20422;-61
2021/09/03 10:49:59;;;;;;;5.97;4.55;;;;;;;;;;10283724;28;20075;-59
2021/09/03 10:54:59;;;;;;;10.23;3.40;;;;;;;;;;10283503;28;20048;-59
2021/09/03 11:00:14;;;;;;;3.65;2.42;;;;;;;;;;10283578;28;20064;-60
2021/09/03 11:05:13;;;;;;;4.68;2.50;;;;;;;;;;10283040;28;20048;-60
2021/09/03 11:10:17;;;;;;;6.57;3.28;;;;;;;;;;10282884;28;20076;-59
2021/09/03 11:15:16;;;;;;;;;;;;;;;;;;10283228;28;20080;-60
2021/09/03 11:20:14;;;;;;;5.00;3.28;;;;;;;;;;10282530;28;19967;-61
2021/09/03 11:25:12;;;;;;;6.47;3.20;;;;;;;;;;10282638;28;20499;-60
2021/09/03 11:30:13;;;;;;;6.43;5.35;;;;;;;;;;10282243;28;20065;-60
2021/09/03 11:35:12;;;;;;;6.45;3.20;;;;;;;;;;10282031;28;20045;-60
2021/09/03 11:40:12;;;;;;;6.13;3.03;;;;;;;;;;10281902;28;20418;-60
2021/09/03 11:45:14;;;;;;;2.75;2.55;;;;;;;;;;10280567;28;20056;-60
2021/09/03 11:50:14;;;;;;;6.28;3.47;;;;;;;;;;10281394;28;20084;-60
2021/09/03 11:55:15;;;;;;;5.25;3.88;;;;;;;;;;10281159;28;20534;-60
2021/09/03 12:00:18;;;;;;;7.25;5.38;;;;;;;;;;10281140;28;20049;-61
2021/09/03 12:05:17;;;;;;;7.78;5.72;;;;;;;;;;10280109;28;20061;-59
2021/09/03 12:10:15;;;;;;;5.00;3.03;;;;;;;;;;10280516;28;20076;-61
2021/09/03 12:15:19;;;;;;;4.78;2.58;;;;;;;;;;10280519;28;20617;-61
2021/09/03 12:20:19;;;;;;;6.47;2.80;;;;;;;;;;10280272;28;20414;-59
2021/09/03 12:25:17;;;;;;;9.07;2.92;;;;;;;;;;10279005;28;20507;-59
2021/09/03 12:30:16;;;;;;;3.45;2.72;;;;;;;;;;10279695;28;20077;-60
2021/09/03 12:35:15;;;;;;;4.90;2.83;;;;;;;;;;10279543;28;20080;-60
2021/09/03 12:40:21;;;;;;;4.97;2.60;;;;;;;;;;10279575;28;20045;-60
2021/09/03 12:45:19;;;;;;;5.85;3.58;;;;;;;;;;10279464;28;20041;-60
2021/09/03 12:50:17;;;;;;;5.22;3.92;;;;;;;;;;10279108;28;20092;-60
2021/09/03 12:55:17;;;;;;;4.10;2.88;;;;;;;;;;10278824;28;20346;-59
2021/09/03 13:00:19;;;;;;;3.80;2.97;;;;;;;;;;10278826;28;20048;-59
2021/09/03 13:05:17;;;;;;;2.90;2.20;;;;;;;;;;10277906;28;20080;-59
2021/09/03 13:10:17;;;;;;;4.85;3.35;;;;;;;;;;10278381;28;20075;-59
2021/09/03 13:15:15;;;;;;;4.05;2.72;;;;;;;;;;10278147;28;20044;-59
2021/09/03 13:20:14;;;;;;;2.67;2.45;;;;;;;;;;10277914;28;20503;-60
2021/09/03 13:25:12;;;;;;;4.90;2.47;;;;;;;;;;10277960;28;20391;-60
2021/09/03 13:30:12;;;;;;;8.77;3.85;;;;;;;;;;10276747;28;20072;-60
2021/09/03 13:35:11;;;;;;;5.30;2.45;;;;;;;;;;10277752;28;20052;-60
2021/09/03 13:40:11;;;;;;;5.05;2.80;;;;;;;;;;10277307;28;20045;-59
2021/09/03 13:45:10;;;;;;;3.08;2.78;;;;;;;;;;10277298;28;20039;-61
2021/09/03 13:50:11;;;;;;;3.97;2.92;;;;;;;;;;10276984;28;20497;-60
2021/09/03 13:55:10;;;;;;;5.63;3.38;;;;;;;;;;10277024;28;20069;-60
2021/09/03 14:00:09;;;;;;;9.93;6.57;;;;;;;;;;10275632;28;20049;-60
2021/09/03 14:05:08;;;;;;;6.63;5.10;;;;;;;;;;10275853;28;20052;-60
2021/09/03 14:10:08;;;;;;;5.97;3.47;;;;;;;;;;10276160;28;20077;-58
2021/09/03 14:15:07;;;;;;;6.32;3.25;;;;;;;;;;10276315;28;20037;-60
2021/09/03 14:20:06;;;;;;;7.82;5.07;;;;;;;;;;10275616;28;20095;-60
2021/09/03 14:25:05;;;;;;;3.83;2.97;;;;;;;;;;10274915;28;20506;-58
2021/09/03 14:30:06;;;;;;;9.15;6.00;;;;;;;;;;10275291;28;20087;-58
2021/09/03 14:35:04;;;;;;;6.25;4.18;;;;;;;;;;10272820;28;20037;-59
2021/09/03 14:40:04;;;;;;;6.85;3.58;;;;;;;;;;10270778;28;20458;-59
2021/09/03 14:45:07;;;;;;;7.57;4.60;;;;;;;;;;10271986;28;20571;-60
2021/09/03 14:50:06;;;;;;;7.45;3.08;;;;;;;;;;10275055;28;20127;-59
2021/09/03 14:55:05;;;;;;;3.78;3.10;;;;;;;;;;10274425;28;20037;-59
2021/09/03 15:00:06;;;;;;;10.23;4.25;;;;;;;;;;10274108;28;20268;-59
2021/09/03 15:05:05;;;;;;;5.45;3.28;;;;;;;;;;10274373;28;20425;-59
2021/09/03 15:10:05;;;;;;;7.05;6.35;;;;;;;;;;10275154;28;20084;-59
2021/09/03 15:15:04;;;;;;;8.00;7.20;;;;;;;;;;10275167;28;20410;-58
2021/09/03 15:20:05;;;;;;;12.35;11.13;;;;;;;;;;10280337;28;20045;-59
2021/09/03 15:25:17;;;;;;;4.22;3.83;;;;;;;;;;10282247;28;20045;-59
2021/09/03 15:30:34;;;;;;;8.65;4.95;;;;;;;;;;10280952;28;20044;-59
2021/09/03 15:35:33;;;;;;;8.70;7.07;;;;;;;;;;10281386;28;20045;-60
2021/09/03 15:40:32;;;;;;;8.75;5.20;;;;;;;;;;10280557;28;20095;-60
2021/09/03 15:45:30;;;;;;;11.40;6.72;;;;;;;;;;10280526;28;20418;-60
2021/09/03 15:50:28;;;;;;;12.82;5.78;;;;;;;;;;10280134;28;20076;-60
2021/09/03 15:55:29;;;;;;;7.05;4.55;;;;;;;;;;10280041;28;20391;-61
2021/09/03 16:00:27;;;;;;;8.70;4.80;;;;;;;;;;10279757;28;20568;-60
2021/09/03 16:05:25;;;;;;;10.73;7.50;;;;;;;;;;10280667;28;20395;-60
2021/09/03 16:10:24;;;;;;;10.35;6.15;;;;;;;;;;10279485;28;20083;-60
2021/09/03 16:15:23;;;;;;;8.55;3.92;;;;;;;;;;10279261;28;20584;-61
2021/09/03 16:20:22;;;;;;;10.57;6.25;;;;;;;;;;10279087;28;20052;-58
2021/09/03 16:25:20;;;;;;;14.77;13.10;;;;;;;;;;10280106;28;20490;-64
2021/09/03 16:30:18;;;;;;;5.28;4.20;;;;;;;;;;10279246;28;20461;-61
2021/09/03 16:35:18;;;;;;;9.43;8.43;;;;;;;;;;10279617;28;20037;-59
2021/09/03 16:40:16;;;;;;;8.30;4.55;;;;;;;;;;10278236;28;20045;-59
2021/09/03 16:45:15;;;;;;;8.77;5.28;;;;;;;;;;10279092;28;20044;-59
2021/09/03 16:50:13;;;;;;;10.88;3.85;;;;;;;;;;10278740;28;20107;-59
2021/09/03 16:55:13;;;;;;;11.00;5.47;;;;;;;;;;10277674;28;20045;-59
2021/09/03 17:00:12;;;;;;;4.60;3.70;;;;;;;;;;10278529;28;20044;-59
2021/09/03 17:05:10;;;;;;;9.55;4.07;;;;;;;;;;10277640;28;20063;-59
2021/09/03 17:10:09;;;;;;;10.18;4.47;;;;;;;;;;10278125;28;20076;-59
2021/09/03 17:15:09;;;;;;;10.60;8.48;;;;;;;;;;10277880;28;20045;-59
2021/09/03 17:20:08;;;;;;;8.77;4.13;;;;;;;;;;10277633;28;20517;-59
2021/09/03 17:25:07;;;;;;;4.90;3.25;;;;;;;;;;10277485;28;20079;-59
2021/09/03 17:30:06;;;;;;;8.75;3.53;;;;;;;;;;10277379;28;20072;-60
2021/09/03 17:35:06;;;;;;;8.55;4.00;;;;;;;;;;10277208;28;20107;-60
2021/09/03 17:40:06;;;;;;;3.78;3.38;;;;;;;;;;10276581;28;20418;-60
2021/09/03 17:45:05;;;;;;;5.93;3.30;;;;;;;;;;10276631;28;20041;-60
2021/09/03 17:50:06;;;;;;;6.47;3.22;;;;;;;;;;10276624;28;20084;-60
2021/09/03 17:55:05;;;;;;;7.32;2.85;;;;;;;;;;10276687;28;20060;-60
2021/09/03 18:00:06;;;;;;;8.07;3.40;;;;;;;;;;10276307;28;20049;-60
2021/09/03 18:05:08;;;;;;;;;;;;;;;;;;10277071;28;20051;-60
2021/09/03 18:10:09;;;;;;;5.72;3.97;;;;;;;;;;10276322;28;20202;-60
2021/09/03 18:15:08;;;;;;;9.40;5.50;;;;;;;;;;10276193;28;20051;-59
2021/09/03 18:20:07;;;;;;;8.85;4.97;;;;;;;;;;10276090;28;20080;-59
2021/09/03 18:25:06;;;;;;;6.50;3.97;;;;;;;;;;10275945;28;20073;-59
2021/09/03 18:30:08;;;;;;;8.35;4.05;;;;;;;;;;10275760;28;20081;-60
2021/09/03 18:35:06;;;;;;;9.70;5.47;;;;;;;;;;10275969;28;20081;-60
2021/09/03 18:40:06;;;;;;;5.63;3.58;;;;;;;;;;10275826;28;20077;-59
2021/09/03 18:45:05;;;;;;;5.70;3.60;;;;;;;;;;10275672;28;20501;-59
2021/09/03 18:50:06;;;;;;;5.38;4.72;;;;;;;;;;10275527;28;20079;-60
2021/09/03 18:55:05;;;;;;;5.45;3.97;;;;;;;;;;10281293;28;20037;-59
2021/09/03 19:00:04;;;;;;;9.68;4.18;;;;;;;;;;10283157;28;20072;-59
2021/09/03 19:05:03;;;;;;;5.63;3.65;;;;;;;;;;10282436;28;20099;-60
2021/09/03 19:10:06;;;;;;;9.02;3.50;;;;;;;;;;10281891;28;20083;-60
2021/09/03 19:15:05;;;;;;;4.22;3.08;;;;;;;;;;10282602;28;20045;-60
2021/09/03 19:20:06;;;;;;;4.28;3.42;;;;;;;;;;10282553;28;20341;-60
2021/09/03 19:25:06;;;;;;;7.22;4.30;;;;;;;;;;10282076;28;20513;-61
2021/09/03 19:30:06;;;;;;;9.80;3.90;;;;;;;;;;10281970;28;20464;-60
2021/09/03 19:35:05;;;;;;;7.57;4.35;;;;;;;;;;10280374;28;20056;-60
2021/09/03 19:40:07;;;;;;;7.35;4.00;;;;;;;;;;10281675;28;20418;-60
2021/09/03 19:45:06;;;;;;;8.30;3.42;;;;;;;;;;10281632;28;20052;-60
2021/09/03 19:50:06;;;;;;;10.35;4.15;;;;;;;;;;10281572;28;20077;-60
2021/09/03 19:55:06;;;;;;;3.97;3.58;;;;;;;;;;10280968;28;20041;-59
2021/09/03 20:00:05;;;;;;;9.45;4.57;;;;;;;;;;10280466;28;20041;-57
2021/09/03 20:05:10;;;;;;;5.72;3.55;;;;;;;;;;10279033;28;20083;-59
2021/09/03 20:10:10;;;;;;;7.10;3.50;;;;;;;;;;10280471;28;20095;-62
2021/09/03 20:15:09;;;;;;;8.10;3.58;;;;;;;;;;10280363;28;20048;-58
2021/09/03 20:20:08;;;;;;;6.82;4.28;;;;;;;;;;10280066;28;20041;-58
2021/09/03 20:25:07;;;;;;;6.78;4.15;;;;;;;;;;10279696;28;20068;-58
2021/09/03 20:30:07;;;;;;;5.47;3.92;;;;;;;;;;10279492;28;20077;-59
2021/09/03 20:35:06;;;;;;;6.28;4.13;;;;;;;;;;10279562;28;20083;-59
2021/09/03 20:40:05;;;;;;;5.63;3.95;;;;;;;;;;10279517;28;20037;-59
2021/09/03 20:45:05;;;;;;;7.13;3.97;;;;;;;;;;10279169;28;20075;-58
2021/09/03 20:50:05;;;;;;;7.47;4.15;;;;;;;;;;10279058;28;20084;-59
2021/09/03 20:55:05;;;;;;;5.78;4.03;;;;;;;;;;10278659;28;20072;-58
2021/09/03 21:00:03;;;;;;;9.27;4.40;;;;;;;;;;10278538;28;20037;-59
2021/09/03 21:05:03;;;;;;;7.32;5.20;;;;;;;;;;10277890;28;20257;-59
2021/09/03 21:10:03;;;;;;;7.18;4.90;;;;;;;;;;10278301;28;20115;-59
2021/09/03 21:15:02;;;;;;;7.63;3.63;;;;;;;;;;10277972;28;20056;-58
2021/09/03 21:20:01;;;;;;;6.10;3.55;;;;;;;;;;10278019;28;20041;-59
2021/09/03 21:24:59;;;;;;;4.55;3.47;;;;;;;;;;10277558;28;20482;-59
2021/09/03 21:29:59;;;;;;;5.68;3.08;;;;;;;;;;10277300;28;20087;-59
2021/09/03 21:34:58;;;;;;;3.60;2.78;;;;;;;;;;10277321;28;20041;-59
2021/09/03 21:39:56;;;;;;;3.40;2.63;;;;;;;;;;10276059;28;20556;-59
2021/09/03 21:44:55;;;;;;;3.08;2.58;;;;;;;;;;10310408;28;20072;-58
2021/09/03 21:49:54;;;;;;;4.85;2.35;;;;;;;;;;10317550;28;20080;-58
2021/09/03 21:54:53;;;;;;;3.25;2.60;;;;;;;;;;10317453;28;20055;-58
2021/09/03 21:59:51;;;;;;;9.43;2.60;;;;;;;;;;10317348;28;20051;-58
2021/09/03 22:04:49;;;;;;;5.97;2.67;;;;;;;;;;10316740;28;20430;-58
2021/09/03 22:09:49;;;;;;;3.47;2.35;;;;;;;;;;10317123;28;20501;-59
2021/09/03 22:14:47;;;;;;;3.15;2.40;;;;;;;;;;10316753;28;20242;-58
2021/09/03 22:19:45;;;;;;;4.70;2.35;;;;;;;;;;10316933;28;20490;-58
2021/09/03 22:24:44;;;;;;;4.75;2.55;;;;;;;;;;10316613;28;20521;-58
2021/09/03 22:29:43;;;;;;;4.00;2.67;;;;;;;;;;10322239;28;20084;-58
2021/09/03 22:34:42;;;;;;;5.72;2.83;;;;;;;;;;10325021;28;20064;-58
2021/09/03 22:39:40;;;;;;;4.97;3.03;;;;;;;;;;10324824;28;20391;-59
2021/09/03 22:44:38;;;;;;;5.07;3.10;;;;;;;;;;10324344;28;20048;-58
2021/09/03 22:49:38;;;;;;;3.60;2.35;;;;;;;;;;10324242;28;20497;-58
2021/09/03 22:54:36;;;;;;;3.28;2.70;;;;;;;;;;10323840;28;20072;-59
2021/09/03 22:59:35;;;;;;;4.47;2.33;;;;;;;;;;10323749;28;20051;-57
2021/09/03 23:04:34;;;;;;;4.68;2.50;;;;;;;;;;10323078;28;20239;-59
2021/09/03 23:09:33;;;;;;;3.70;2.60;;;;;;;;;;10323504;28;20033;-59
2021/09/03 23:14:33;;;;;;;4.65;3.22;;;;;;;;;;10323023;28;20076;-58
2021/09/03 23:19:31;;;;;;;3.80;2.90;;;;;;;;;;10323178;28;20048;-57
2021/09/03 23:24:29;;;;;;;6.82;3.00;;;;;;;;;;10322455;28;20071;-59
2021/09/03 23:29:29;;;;;;;5.07;3.42;;;;;;;;;;10322598;28;20029;-58
2021/09/03 23:34:27;;;;;;;6.85;2.85;;;;;;;;;;10321574;28;20562;-59
2021/09/03 23:39:26;;;;;;;4.18;2.63;;;;;;;;;;10321027;28;20052;-59
2021/09/03 23:44:24;;;;;;;5.70;3.45;;;;;;;;;;10322091;28;20041;-59
2021/09/03 23:49:24;;;;;;;4.47;2.80;;;;;;;;;;10322136;28;20080;-59
2021/09/03 23:54:22;;;;;;;8.45;3.30;;;;;;;;;;10321791;28;20064;-59
2021/09/03 23:59:20;;;;;;;5.40;3.10;;;;;;;;;;10321680;28;20497;-59
